Sharonville, Ohio
Current Conditions -  °F | °C
As of 5:53 PM on Wednesday 22 Oct 2014 (Local Time) from KHAO Reporting Station
Overcast Overcast  
Wind Chill: 53°   Ceiling: 3200
Heat Index: 53°   Visibility: 10mi
Dew Point: 41°   Wind: 6mph
Humidity: 64%   Direction: 70°ENE
Pressure: 30.28"   Gusts: NA
Location:  39.27°N, 84.41°W
Report Text: KHAO 222153Z AUTO 07005KT 10SM OVC032 12/05 A3028 RMK AO2 SLP255 T01170050
Loading
Personal Weather Stations






























Interactive Weather Map
Tropical Storm Tracking
New forecast layout! Learn more

10-Day Weather Forecast

Advertisements
Track Severe Weather on mobile